XRY weather

Jerez Airport
Jerez de la Forntera, AndalucĂ­a, Spain

Public forecast

Using degrees Celsius for public forecast. Weather courtesy of forecast.io.

METAR (pilot weather report)

Retrieved 2018/10/16 12:30 UTC (0 seconds ago):

LEJR 161230Z 36008KT 330V030 9999 SCT020 BKN037 21/16 Q1014

TAF (pilot weather forecast)

Retrieved 2018/10/16 12:27 UTC (0 seconds ago):

TAF LEJR 161100Z 1612/1712 04005KT 9999 SCT015 SCT030 TX23/1614Z TN12/1706Z PROB40 TEMPO 1705/1709 4000 BR BKN005 PROB30 TEMPO 1706/1708 0500 FG VV001